Aktualne dane pomiarowe

Uwaga, wersja testowa! Automatyczne pobieranie danych za pomocą narzędzi lub skryptów to umożliwiających jest zabronione.

Dane meteo z obszaru Polski uzyskane na podstawie depesz SYNOP pobieranych co godzinę z NWS. Najedź myszką na symbol przedstawiony w tabeli, aby uzyskać informacje co do jego znaczenia. Prosimy pamiętać, że to testowa wersja strony, która jeszcze nie jest ukończona. Stworzono również jest krótki FAQ dotyczący korzystania z tej podstrony Anomalie temperatury w chwili obecnej odniesione są do okresu referencyjnego 1951-2016. Okres ten będzie później zmieniony na 1981-2010. Kliknij ikonę aby pobrać plik CSV. Kliknij ikonę aby wygenerować mapę synoptyczną dla danego terminu.

Wybierz Datę:    

        

Suwałki (12195)

Dane terminowe dla wybranej stacji. Kliknij datę, aby otrzymać dane z tego terminu dla wszystkich stacji.

TemperaturaZachmurzenieWiatrCiśnienieOpadyPogoda
 Data t td wb tx tn tg rh  Nt Nl Cl Cm Ch ws wd g1 g2 wx mslp ppp ch 24h 12h t ww ww w1 w2  
2019-08-08 23:00:00 14.2 12.4 12.9--- 8927.0wx-wx2wx--21009.9 987.8 0.3---------
2019-08-08 22:00:00 13.4 11.6 12.1--- 8922.0wx-2wx--21009.8 987.6 0.5---------
2019-08-08 21:00:00 14.2 11.9 12.6--- 8630.0wx-3wx--31009.7 987.6 1.1---------
2019-08-08 20:00:00 15.3 12.1 13.2--- 8140.0wx-4wx---1009.5 987.5 1.5---------
2019-08-08 19:00:00 17.0 13.7 14.8--- 8130.0wxwxwxwx3wx--31009.0 987.1 1.6---------
2019-08-08 18:00:00 18.6 14.3 15.7 21.9 16.5- 7635.0wxwxwxwx3wx-1531008.2 986.5 1.4- 2.012wx-w1--
2019-08-08 17:00:00 19.8 13.5 15.7--- 6735.0wxwxwxwxwx6wx-1261007.6 986.0 1.5---------
2019-08-08 16:00:00 20.7 13.2 15.9--- 6230.0wxwxwxwxwx7wx---1007.1 985.5 1.3---------
2019-08-08 15:00:00 20.8 13.0 15.9--- 6140.0wxwxwxwx6wx12--1006.6 985.1 1.6---wx-w1--
2019-08-08 14:00:00 21.1 13.8 16.4--- 6329.0wxwxwxwx8wx151581006.0 984.5 1.3---------
2019-08-08 13:00:00 19.6 14.8 16.4--- 7422.0wxwxwxwx8wx-1281005.8 984.2 2.1---wx---
2019-08-08 12:00:00 20.8 14.0 16.4--- 6545.0wxwxwxwx7wx-1671005.0 983.5 2.4- 2.06wx-w1--
2019-08-08 11:00:00 19.8 13.5 15.7--- 6735.0wxwxwxwx8wx161681004.8 983.2 2.6---------
2019-08-08 10:00:00 18.7 14.4 15.8--- 7630.0wxwxwxwx8wx131481003.7 982.1 2.3---------
2019-08-08 09:00:00 17.1 14.9 15.6--- 8735.0wxwxwxwx7wx-1571002.8 981.1 1.5---wx---
2019-08-08 08:00:00 17.1 16.0 16.3--- 9330.0wxwxwx7wx121271002.3 980.6 0.5---wx-w1w2--
2019-08-08 07:00:00 17.1 16.3 16.5--- 953.1wxwxwx2wx--21001.5 979.8 -0.8---wx-w1w2--
2019-08-08 06:00:00 17.2 16.6 16.7 21.6 15.6 14 9613.0wxwxwxwx1wx--11001.3 979.6 -1.7 26.4 26.012wx-w1- 3.7
2019-08-08 05:00:00 16.5 15.9 16.0--- 965.0wxwxwx1wx---1001.8 980.1 -2.1---wx-w1--
2019-08-08 04:00:00 16.4 15.8 15.9--- 961.1wxwxwx1wx---1002.4 980.6 -2.0---wx-w1w2--
2019-08-08 03:00:00 16.4 15.8 15.9--- 963.0wxwxwx1wx--11003.1 981.3 -2.1---wx-w1w2--
2019-08-08 02:00:00 16.4 15.4 15.7--- 945.0wxwxwx2wx--21004.0 982.2 -1.4---wx-w1--
2019-08-08 01:00:00 16.1 14.8 15.2--- 9213.0wx-wx1wx--11004.4 982.6 -1.5---------
2019-08-08 00:00:00 15.9 14.6 15.0--- 9214.0wx-wx1wx--11005.3 983.4 -1.3- 0.06------
2019-08-07 23:00:00 15.9 14.3 14.8--- 9014.0wx-wx0---01005.5 983.6 -1.4---------
2019-08-07 22:00:00 16.1 14.5 15.0--- 9016.0wx-wx1wx--11006.0 984.1 -1.0---------
2019-08-07 21:00:00 16.0 14.2 14.7--- 8915.0wx-wx1wx--11006.6 984.7 -0.5---------
2019-08-07 20:00:00 17.1 14.6 15.4--- 8518.0wx-wx1wx---1006.8 985.0 -0.1---------
2019-08-07 19:00:00 18.8 14.7 16.0--- 7723.0wx-wx1wx---1006.8 985.1 -0.2---------
2019-08-07 18:00:00 21.6 15.2 17.4 24.5 16.0- 6735.0wxwxwxwx2wx--21006.7 985.2 -0.3- 0.112------
2019-08-07 17:00:00 23.2 14.5 17.6--- 5840.0wxwxwxwx3wx--31006.5 985.1 -0.8---------
2019-08-07 16:00:00 23.4 14.7 17.8--- 5840.0wxwxwxwx3wx--31006.7 985.3 -1.0---------
2019-08-07 15:00:00 24.3 15.5 18.6--- 5835.0wxwxwxwx2wx--21006.8 985.5 -1.0---------
2019-08-07 14:00:00 23.7 14.7 17.9--- 5735.0wxwxwxwx1wx---1007.2 985.9 -0.9---------
2019-08-07 13:00:00 23.2 14.2 17.5--- 5735.0wxwxwxwx3wx--31007.7 986.3 -0.7---------
2019-08-07 12:00:00 23.3 14.0 17.4--- 5645.0wxwxwxwx3wx--31007.9 986.5 0.0- 0.16wx-w1--
2019-08-07 11:00:00 22.8 15.1 17.8--- 6230.0wxwxwxwxwx3wx--31008.2 986.8 0.4---------
2019-08-07 10:00:00 21.4 14.5 16.9--- 6535.0wxwxwxwx2wx--21008.5 987.0 0.5---------
2019-08-07 09:00:00 18.8 15.7 16.6--- 8225.0wxwxwxwx1wx--11008.2 986.5 -0.2---wx-w1--
2019-08-07 08:00:00 17.2 15.5 16.0--- 9015.0wxwxwxwx2wx--21008.2 986.4 -0.4---------
2019-08-07 07:00:00 16.6 15.1 15.5--- 9113.0wxwxwxwx1wx--11008.4 986.5 0.2---wx-w1--
2019-08-07 06:00:00 16.0 14.7 15.1 18.2 14.0 12 9213.0wxwxwxwx3wx--31008.6 986.7 1.3 0.1-12wx-w1- 7.0
2019-08-07 05:00:00 15.3 14.5 14.7--- 9510.0wxwxwxwx2wx--21008.8 986.8 1.1---------
2019-08-07 04:00:00 14.4 13.6 13.8--- 956.0wx-wx2wx---1008.3 986.3 -0.2---wx---
2019-08-07 03:00:00 14.6 13.6 13.9--- 9410.0wx-wx1wx--11007.4 985.4 -1.1---wx---
2019-08-07 02:00:00 14.6 13.5 13.8--- 9310.0wx-wxwx1wx--11007.7 985.7 -1.2---------
2019-08-07 01:00:00 14.7 13.7 14.0--- 9412.0wx-wx2wx--21008.5 986.5 -0.4---------
2019-08-07 00:00:00 15.4 13.8 14.3--- 9022.0wx-wx1wx--11008.5 986.5 -0.6- 0.06------
1.2 ms

 

Print Friendly, PDF & Email